Terminal Aerodrome Forecast
Issued by NWS

Home | Current Version | Previous Version | Graphics & Text | Print | Product List | Glossary On
Versions: 1 2 3 4 5 6 7 8 9 10 11 12 13 14 15 16 17
000
FTUS43 KGRB 272029 AAA
TAFRHI
TAF AMD
KRHI 272029Z 2720/2818 00000KT P6SM VCSH SCT050 OVC100
     FM272200 04004KT P6SM VCSH SCT025 OVC040
      TEMPO 2722/2801 2SM TSRA BR BKN025CB
     FM280100 07004KT P6SM VCSH BKN025 OVC040
     FM280600 09006KT 3SM BR BKN020
     FM280900 06003KT 2SM BR BKN009 OVC018
     FM281400 06005KT P6SM BKN040=

USA.gov is the U.S. government's official web portal to all federal, state and local government web resources and services.